createdAt,value
2018-09-22T00:01:59.189Z,12.60
2018-09-22T00:04:27.351Z,12.60
2018-09-22T00:06:55.497Z,12.50
2018-09-22T00:09:24.098Z,12.60
2018-09-22T00:11:52.224Z,12.60
2018-09-22T00:14:20.312Z,12.50
2018-09-22T00:16:48.512Z,12.40
2018-09-22T00:19:16.566Z,12.40
2018-09-22T00:21:44.848Z,12.30
2018-09-22T00:24:12.904Z,12.40
2018-09-22T00:26:40.984Z,12.40
2018-09-22T00:29:09.071Z,12.40
2018-09-22T00:31:37.154Z,12.30
2018-09-22T00:34:05.353Z,12.30
2018-09-22T00:36:33.527Z,12.30
2018-09-22T00:39:01.617Z,12.20
2018-09-22T00:41:29.907Z,12.10
2018-09-22T00:43:58.013Z,12.10
2018-09-22T00:46:26.125Z,12.20
2018-09-22T00:48:54.253Z,12.30
2018-09-22T00:51:22.383Z,12.30
2018-09-22T00:53:50.441Z,12.30
2018-09-22T00:56:18.666Z,12.10
2018-09-22T00:58:46.913Z,12.10
2018-09-22T01:01:14.995Z,12.00
2018-09-22T01:03:43.147Z,12.00
2018-09-22T01:06:11.354Z,12.00
2018-09-22T01:08:39.533Z,12.30
2018-09-22T01:11:07.763Z,12.50
2018-09-22T01:13:35.848Z,12.40
2018-09-22T01:16:04.212Z,12.30
2018-09-22T01:18:32.313Z,12.30
2018-09-22T01:21:00.460Z,12.40
2018-09-22T01:23:28.661Z,12.40
2018-09-22T01:25:56.678Z,12.50
2018-09-22T01:28:24.800Z,12.40
2018-09-22T01:30:52.884Z,12.40
2018-09-22T01:33:20.913Z,12.30
2018-09-22T01:35:48.996Z,12.40
2018-09-22T01:38:17.919Z,12.40
2018-09-22T01:40:46.107Z,12.30
2018-09-22T01:43:14.369Z,12.30
2018-09-22T01:45:42.491Z,12.30
2018-09-22T01:48:10.668Z,12.20
2018-09-22T01:50:38.884Z,12.10
2018-09-22T01:53:07.395Z,12.10
2018-09-22T01:55:35.530Z,12.10
2018-09-22T01:58:03.718Z,12.10
2018-09-22T02:00:31.845Z,12.00
2018-09-22T02:02:59.880Z,12.10
2018-09-22T02:05:28.105Z,12.30
2018-09-22T02:07:56.287Z,12.30
2018-09-22T02:10:24.497Z,12.30
2018-09-22T02:12:52.586Z,12.20
2018-09-22T02:15:20.664Z,12.30
2018-09-22T02:17:48.876Z,12.30
2018-09-22T02:20:16.984Z,12.20
2018-09-22T02:22:45.213Z,12.20
2018-09-22T02:25:13.249Z,12.10
2018-09-22T02:27:41.500Z,12.10
2018-09-22T02:30:09.576Z,12.00
2018-09-22T02:32:37.658Z,12.10
2018-09-22T02:35:06.394Z,12.00
2018-09-22T02:37:34.482Z,12.00
2018-09-22T02:40:02.661Z,12.10
2018-09-22T02:42:30.812Z,11.90
2018-09-22T02:44:58.955Z,11.90
2018-09-22T02:47:27.033Z,12.00
2018-09-22T02:49:55.269Z,12.00
2018-09-22T02:52:23.424Z,12.00
2018-09-22T02:54:51.499Z,11.90
2018-09-22T02:57:19.641Z,11.90
2018-09-22T02:59:47.905Z,11.80
2018-09-22T03:02:15.971Z,11.90
2018-09-22T03:04:44.202Z,11.80
2018-09-22T03:07:12.324Z,11.70
2018-09-22T03:09:40.481Z,11.80
2018-09-22T03:12:08.633Z,11.70
2018-09-22T03:14:36.688Z,11.70
2018-09-22T03:17:04.809Z,11.70
2018-09-22T03:19:32.830Z,11.70
2018-09-22T03:22:00.975Z,11.70
2018-09-22T03:24:29.073Z,11.80
2018-09-22T03:26:57.118Z,11.90
2018-09-22T03:29:25.385Z,12.00
2018-09-22T03:31:53.604Z,12.00
2018-09-22T03:34:22.278Z,11.90
2018-09-22T03:36:50.462Z,11.90
2018-09-22T03:39:18.658Z,12.00
2018-09-22T03:41:46.746Z,12.00
2018-09-22T03:44:14.888Z,12.00
2018-09-22T03:46:42.921Z,12.00
2018-09-22T03:49:11.504Z,12.00
2018-09-22T03:51:40.220Z,12.10
2018-09-22T03:54:08.202Z,12.10
2018-09-22T03:56:36.240Z,12.10
2018-09-22T03:59:04.343Z,12.00
2018-09-22T04:01:33.384Z,12.00
2018-09-22T04:04:01.633Z,11.90
2018-09-22T04:06:29.745Z,11.90
2018-09-22T04:08:57.844Z,11.90
2018-09-22T04:11:25.957Z,12.00
2018-09-22T04:13:54.109Z,11.90
2018-09-22T04:16:22.213Z,11.90
2018-09-22T04:18:50.304Z,12.00
2018-09-22T04:21:18.307Z,12.00
2018-09-22T04:23:47.025Z,12.10
2018-09-22T04:26:15.110Z,11.90
2018-09-22T04:28:43.168Z,11.90
2018-09-22T04:31:11.286Z,11.90
2018-09-22T04:33:39.300Z,11.80
2018-09-22T04:36:07.485Z,11.80
2018-09-22T04:38:35.578Z,11.80
2018-09-22T04:41:03.828Z,11.80
2018-09-22T04:43:31.916Z,11.80
2018-09-22T04:46:00.036Z,11.70
2018-09-22T04:48:28.072Z,11.80
2018-09-22T04:50:56.233Z,11.80
2018-09-22T04:53:24.310Z,11.70
2018-09-22T04:55:52.417Z,11.70
2018-09-22T04:58:20.535Z,11.70
2018-09-22T05:00:48.729Z,11.70
2018-09-22T05:03:16.807Z,11.70
2018-09-22T05:05:44.900Z,11.70
2018-09-22T05:08:12.983Z,11.60
2018-09-22T05:10:41.119Z,11.60
2018-09-22T05:13:09.240Z,11.70
2018-09-22T05:15:37.436Z,11.60
2018-09-22T05:18:05.660Z,11.60
2018-09-22T05:20:33.824Z,11.70
2018-09-22T05:23:01.941Z,11.60
2018-09-22T05:25:30.083Z,11.60
2018-09-22T05:27:58.191Z,11.60
2018-09-22T05:30:26.279Z,11.70
2018-09-22T05:32:54.495Z,11.60
2018-09-22T05:35:22.641Z,11.70
2018-09-22T05:37:50.867Z,11.80
2018-09-22T05:40:19.006Z,11.70
2018-09-22T05:42:47.085Z,11.60
2018-09-22T05:45:15.294Z,11.60
2018-09-22T05:47:43.545Z,11.60
2018-09-22T05:50:11.812Z,11.60
2018-09-22T05:52:40.040Z,11.70
2018-09-22T05:55:08.479Z,11.70
2018-09-22T05:57:36.762Z,11.70
2018-09-22T06:00:05.884Z,11.70
2018-09-22T06:02:34.022Z,11.80
2018-09-22T06:05:02.114Z,11.80
2018-09-22T06:07:30.233Z,11.80
2018-09-22T06:09:58.504Z,11.70
2018-09-22T06:12:26.709Z,11.80
2018-09-22T06:14:54.782Z,11.70
2018-09-22T06:17:22.974Z,11.80
2018-09-22T06:19:51.233Z,12.00
2018-09-22T06:22:19.444Z,12.00
2018-09-22T06:24:47.568Z,11.90
2018-09-22T06:27:15.650Z,11.90
2018-09-22T06:29:43.795Z,11.90
2018-09-22T06:32:12.718Z,12.00
2018-09-22T06:34:40.900Z,12.00
2018-09-22T06:37:09.372Z,12.10
2018-09-22T06:39:37.570Z,12.00
2018-09-22T06:42:05.530Z,12.10
2018-09-22T06:44:33.986Z,12.10
2018-09-22T06:47:02.146Z,12.10
2018-09-22T06:49:30.514Z,12.10
2018-09-22T06:51:58.729Z,12.20
2018-09-22T06:54:26.821Z,12.30
2018-09-22T06:56:55.004Z,12.20
2018-09-22T06:59:23.283Z,12.10
2018-09-22T07:01:51.443Z,12.30
2018-09-22T07:04:19.580Z,12.50
2018-09-22T07:06:47.926Z,12.50
2018-09-22T07:09:16.085Z,12.50
2018-09-22T07:11:44.484Z,12.60
2018-09-22T07:14:12.741Z,12.80
2018-09-22T07:16:41.183Z,12.80
2018-09-22T07:19:09.509Z,12.90
2018-09-22T07:21:43.602Z,12.90
2018-09-22T07:24:11.905Z,12.90
2018-09-22T07:26:40.112Z,12.80
2018-09-22T07:29:08.583Z,12.70
2018-09-22T07:31:36.891Z,12.60
2018-09-22T07:34:05.084Z,12.60
2018-09-22T07:36:33.287Z,12.80
2018-09-22T07:39:01.400Z,12.80
2018-09-22T07:41:29.764Z,12.90
2018-09-22T07:43:57.881Z,13.20
2018-09-22T07:46:27.009Z,13.30
2018-09-22T07:48:55.273Z,13.30
2018-09-22T07:51:23.501Z,13.30
2018-09-22T07:53:51.949Z,13.40
2018-09-22T07:56:20.173Z,13.50
2018-09-22T07:58:48.350Z,13.40
2018-09-22T08:01:16.581Z,13.30
2018-09-22T08:03:44.868Z,13.50
2018-09-22T08:06:13.328Z,13.30
2018-09-22T08:08:41.518Z,13.70
2018-09-22T08:11:09.801Z,13.90
2018-09-22T08:13:38.071Z,13.90
2018-09-22T08:16:06.327Z,14.10
2018-09-22T08:18:34.831Z,14.20
2018-09-22T08:21:03.084Z,14.20
2018-09-22T08:23:31.388Z,14.30
2018-09-22T08:25:59.556Z,14.20
2018-09-22T08:28:27.841Z,14.30
2018-09-22T08:30:56.088Z,14.20
2018-09-22T08:33:24.433Z,14.30
2018-09-22T08:35:52.938Z,14.60
2018-09-22T08:38:21.197Z,14.80
2018-09-22T08:40:49.357Z,14.70
2018-09-22T08:43:17.801Z,14.90
2018-09-22T08:45:45.967Z,15.00
2018-09-22T08:48:14.292Z,15.20
2018-09-22T08:50:42.614Z,15.40
2018-09-22T08:53:11.549Z,15.30
2018-09-22T08:55:39.805Z,15.30
2018-09-22T08:58:07.979Z,15.40
2018-09-22T09:00:36.263Z,15.40
2018-09-22T09:03:04.397Z,15.60
2018-09-22T09:05:32.787Z,15.60
2018-09-22T09:08:01.056Z,15.60
2018-09-22T09:10:29.117Z,15.50
2018-09-22T09:12:57.384Z,15.40
2018-09-22T09:15:26.391Z,15.50
2018-09-22T09:17:54.589Z,15.40
2018-09-22T09:20:22.829Z,15.70
2018-09-22T09:22:51.043Z,15.60
2018-09-22T09:25:19.281Z,15.70
2018-09-22T09:27:47.608Z,15.60
2018-09-22T09:30:15.879Z,15.90
2018-09-22T09:32:44.010Z,16.20
2018-09-22T09:35:12.335Z,16.30
2018-09-22T09:37:40.468Z,16.70
2018-09-22T09:40:08.612Z,16.90
2018-09-22T09:42:36.838Z,16.70
2018-09-22T09:45:05.088Z,16.60
2018-09-22T09:47:33.334Z,16.90
2018-09-22T09:50:01.434Z,16.60
2018-09-22T09:52:29.870Z,16.70
2018-09-22T09:54:58.312Z,16.50
2018-09-22T09:57:27.068Z,16.60
2018-09-22T09:59:55.319Z,16.40
2018-09-22T10:02:23.550Z,16.70
2018-09-22T10:04:51.812Z,16.80
2018-09-22T10:07:20.013Z,16.70
2018-09-22T10:09:48.359Z,16.60
2018-09-22T10:12:16.613Z,16.80
2018-09-22T10:14:44.864Z,16.90
2018-09-22T10:17:14.951Z,17.40
2018-09-22T10:19:44.145Z,17.80
2018-09-22T10:22:12.295Z,17.50
2018-09-22T10:24:40.604Z,17.30
2018-09-22T10:27:08.792Z,17.70
2018-09-22T10:29:37.008Z,17.60
2018-09-22T10:32:05.265Z,17.80
2018-09-22T10:34:33.431Z,17.80
2018-09-22T10:37:02.124Z,17.50
2018-09-22T10:39:30.346Z,17.50
2018-09-22T10:41:58.603Z,18.30
2018-09-22T10:44:26.859Z,18.70
2018-09-22T10:46:55.677Z,18.50
2018-09-22T10:49:23.947Z,18.30
2018-09-22T10:51:52.157Z,18.60
2018-09-22T10:54:20.506Z,18.50
2018-09-22T10:56:48.736Z,18.20
2018-09-22T10:59:17.026Z,17.90
2018-09-22T11:01:45.221Z,17.80
2018-09-22T11:04:13.598Z,17.60
2018-09-22T11:06:41.924Z,18.10
2018-09-22T11:09:10.163Z,18.30
2018-09-22T11:11:38.319Z,18.10
2018-09-22T11:14:06.591Z,17.80
2018-09-22T11:16:34.800Z,17.60
2018-09-22T11:19:03.193Z,18.40
2018-09-22T11:21:31.415Z,18.40
2018-09-22T11:23:59.490Z,18.50
2018-09-22T11:26:27.704Z,18.40
2018-09-22T11:28:56.016Z,18.50
2018-09-22T11:31:24.319Z,18.70
2018-09-22T11:33:52.517Z,19.00
2018-09-22T11:36:20.904Z,19.00
2018-09-22T11:38:49.075Z,19.20
2018-09-22T11:41:17.418Z,18.90
2018-09-22T11:43:45.585Z,19.50
2018-09-22T11:46:14.156Z,19.50
2018-09-22T11:48:42.364Z,19.20
2018-09-22T11:51:10.557Z,19.60
2018-09-22T11:53:38.669Z,18.90
2018-09-22T11:56:06.888Z,18.70
2018-09-22T11:58:35.050Z,18.70
2018-09-22T12:01:03.389Z,18.90
2018-09-22T12:03:31.585Z,19.00
2018-09-22T12:05:59.780Z,19.10
2018-09-22T12:08:28.055Z,19.40
2018-09-22T12:10:56.215Z,19.40
2018-09-22T12:13:24.394Z,19.60
2018-09-22T12:15:52.514Z,19.40
2018-09-22T12:18:20.680Z,19.30
2018-09-22T12:20:48.872Z,19.20
2018-09-22T12:23:23.617Z,19.20
2018-09-22T12:25:51.883Z,18.80
2018-09-22T12:28:20.069Z,19.00
2018-09-22T12:30:48.302Z,19.40
2018-09-22T12:33:16.598Z,19.90
2018-09-22T12:35:44.843Z,19.50
2018-09-22T12:38:12.982Z,19.50
2018-09-22T12:40:41.234Z,19.60
2018-09-22T12:43:09.560Z,19.60
2018-09-22T12:45:37.742Z,19.80
2018-09-22T12:48:06.084Z,19.90
2018-09-22T12:50:34.424Z,19.70
2018-09-22T12:53:02.688Z,19.60
2018-09-22T12:55:30.917Z,19.80
2018-09-22T12:58:01.216Z,19.40
2018-09-22T13:00:29.384Z,19.80
2018-09-22T13:02:57.561Z,19.50
2018-09-22T13:05:25.731Z,19.70
2018-09-22T13:07:54.036Z,19.50
2018-09-22T13:10:22.182Z,19.50
2018-09-22T13:12:50.477Z,19.50
2018-09-22T13:15:19.369Z,19.30
2018-09-22T13:17:47.535Z,19.40
2018-09-22T13:20:15.697Z,19.20
2018-09-22T13:22:44.171Z,19.00
2018-09-22T13:25:12.578Z,18.80
2018-09-22T13:27:40.866Z,18.70
2018-09-22T13:30:09.209Z,18.60
2018-09-22T13:32:37.401Z,18.70
2018-09-22T13:35:05.717Z,18.80
2018-09-22T13:37:34.372Z,19.00
2018-09-22T13:40:02.622Z,19.00
2018-09-22T13:42:30.901Z,18.80
2018-09-22T13:44:59.168Z,19.00
2018-09-22T13:47:27.922Z,19.10
2018-09-22T13:49:57.128Z,19.30
2018-09-22T13:52:25.268Z,19.40
2018-09-22T13:54:53.465Z,19.30
2018-09-22T13:57:21.980Z,18.90
2018-09-22T13:59:50.332Z,19.20
2018-09-22T14:02:18.654Z,19.50
2018-09-22T14:04:46.892Z,19.30
2018-09-22T14:07:15.170Z,19.30
2018-09-22T14:09:43.411Z,19.00
2018-09-22T14:12:11.609Z,19.10
2018-09-22T14:14:39.865Z,19.30
2018-09-22T14:17:08.080Z,19.40
2018-09-22T14:19:36.301Z,19.30
2018-09-22T14:22:04.524Z,19.00
2018-09-22T14:24:32.688Z,19.30
2018-09-22T14:27:00.925Z,19.40
2018-09-22T14:29:29.250Z,19.40
2018-09-22T14:31:57.407Z,19.10
2018-09-22T14:34:25.838Z,18.80
2018-09-22T14:36:54.106Z,18.90
2018-09-22T14:39:22.483Z,18.70
2018-09-22T14:41:51.000Z,18.60
2018-09-22T14:44:19.325Z,18.50
2018-09-22T14:46:47.619Z,18.50
2018-09-22T14:49:15.839Z,18.80
2018-09-22T14:51:44.059Z,18.80
2018-09-22T14:54:12.314Z,19.00
2018-09-22T14:56:40.620Z,19.20
2018-09-22T14:59:08.969Z,19.20
2018-09-22T15:01:37.122Z,19.10
2018-09-22T15:04:05.377Z,19.00
2018-09-22T15:06:33.903Z,18.80
2018-09-22T15:09:02.306Z,19.10
2018-09-22T15:11:30.541Z,19.00
2018-09-22T15:13:58.854Z,18.70
2018-09-22T15:16:27.000Z,18.70
2018-09-22T15:18:55.171Z,18.60
2018-09-22T15:21:23.348Z,18.40
2018-09-22T15:23:51.675Z,18.40
2018-09-22T15:26:19.939Z,18.40
2018-09-22T15:28:48.212Z,18.30
2018-09-22T15:31:16.493Z,18.30
2018-09-22T15:33:44.724Z,18.10
2018-09-22T15:36:13.044Z,17.90
2018-09-22T15:38:41.260Z,17.90
2018-09-22T15:41:09.578Z,18.00
2018-09-22T15:43:37.846Z,18.00
2018-09-22T15:46:06.181Z,18.20
2018-09-22T15:48:34.942Z,18.20
2018-09-22T15:51:03.218Z,18.30
2018-09-22T15:53:31.835Z,18.30
2018-09-22T15:56:00.410Z,18.20
2018-09-22T15:58:29.253Z,18.10
2018-09-22T16:00:57.707Z,18.10
2018-09-22T16:03:26.007Z,18.00
2018-09-22T16:05:54.256Z,17.90
2018-09-22T16:08:22.893Z,17.80
2018-09-22T16:10:51.410Z,17.60
2018-09-22T16:13:19.802Z,17.60
2018-09-22T16:15:48.205Z,17.60
2018-09-22T16:18:16.514Z,17.50
2018-09-22T16:20:45.072Z,17.40
2018-09-22T16:23:13.446Z,17.40
2018-09-22T16:25:41.838Z,17.30
2018-09-22T16:28:10.307Z,17.20
2018-09-22T16:30:38.620Z,17.00
2018-09-22T16:33:07.138Z,17.00
2018-09-22T16:35:35.349Z,17.00
2018-09-22T16:38:03.774Z,17.00
2018-09-22T16:40:31.970Z,16.90
2018-09-22T16:43:01.162Z,16.80
2018-09-22T16:45:29.365Z,16.80
2018-09-22T16:47:57.765Z,16.80
2018-09-22T16:50:27.511Z,16.70
2018-09-22T16:52:55.757Z,16.50
2018-09-22T16:55:24.677Z,16.30
2018-09-22T16:57:53.512Z,16.00
2018-09-22T17:00:21.816Z,15.80
2018-09-22T17:02:49.999Z,15.80
2018-09-22T17:05:18.255Z,15.70
2018-09-22T17:07:46.508Z,15.70
2018-09-22T17:10:15.034Z,15.60
2018-09-22T17:12:43.287Z,15.60
2018-09-22T17:15:11.536Z,15.60
2018-09-22T17:17:39.803Z,15.60
2018-09-22T17:20:08.058Z,15.60
2018-09-22T17:22:36.651Z,15.60
2018-09-22T17:25:04.934Z,15.60
2018-09-22T17:27:33.238Z,15.70
2018-09-22T17:30:01.427Z,15.60
2018-09-22T17:32:29.847Z,15.60
2018-09-22T17:34:58.243Z,15.50
2018-09-22T17:37:26.916Z,15.50
2018-09-22T17:48:55.032Z,14.80
2018-09-22T17:51:23.478Z,14.50
2018-09-22T17:53:53.793Z,14.30
2018-09-22T17:56:22.077Z,14.30
2018-09-22T17:58:50.322Z,14.50
2018-09-22T18:01:18.836Z,14.50
2018-09-22T18:03:47.086Z,14.30
2018-09-22T18:06:15.567Z,14.30
2018-09-22T18:08:44.250Z,14.20
2018-09-22T18:11:12.651Z,14.30
2018-09-22T18:13:41.312Z,14.30
2018-09-22T18:16:09.797Z,14.30
2018-09-22T18:18:38.209Z,14.20
2018-09-22T18:21:07.508Z,14.20
2018-09-22T18:23:35.854Z,14.30
2018-09-22T18:26:04.644Z,14.30
2018-09-22T18:28:33.914Z,14.20
2018-09-22T18:31:02.650Z,14.20
2018-09-22T18:33:31.177Z,14.30
2018-09-22T18:36:00.513Z,14.30
2018-09-22T18:38:29.408Z,14.30
2018-09-22T18:40:57.633Z,14.30
2018-09-22T18:43:26.078Z,14.30
2018-09-22T18:45:54.405Z,14.30
2018-09-22T18:48:24.164Z,14.50
2018-09-22T18:50:52.346Z,14.50
2018-09-22T18:53:20.626Z,14.60
2018-09-22T18:55:49.538Z,14.50
2018-09-22T18:58:17.938Z,14.40
2018-09-22T19:00:46.162Z,14.30
2018-09-22T19:03:14.852Z,14.20
2018-09-22T19:05:43.279Z,14.20
2018-09-22T19:08:11.580Z,14.20
2018-09-22T19:10:39.896Z,14.20
2018-09-22T19:13:10.341Z,14.20
2018-09-22T19:15:46.761Z,14.20
2018-09-22T19:18:20.681Z,14.20
2018-09-22T19:20:55.298Z,14.10
2018-09-22T19:23:27.333Z,14.20
2018-09-22T19:26:00.258Z,14.10
2018-09-22T19:28:33.182Z,14.10
2018-09-22T19:31:05.188Z,14.10
2018-09-22T19:33:41.514Z,14.10
2018-09-22T19:36:22.132Z,14.10
2018-09-22T19:38:57.126Z,14.10
2018-09-22T19:41:34.284Z,14.10
2018-09-22T19:44:10.078Z,14.10
2018-09-22T19:46:42.311Z,14.10
2018-09-22T19:51:53.858Z,14.20
2018-09-22T19:54:22.159Z,14.20
2018-09-22T19:56:50.420Z,14.20
2018-09-22T19:59:18.641Z,14.20
2018-09-22T20:01:47.133Z,14.20
2018-09-22T20:04:15.313Z,14.20
2018-09-22T20:06:43.563Z,14.30
2018-09-22T20:09:11.916Z,14.40
2018-09-22T20:11:40.242Z,14.40
2018-09-22T20:14:08.664Z,14.30
2018-09-22T20:16:36.934Z,14.50
2018-09-22T20:19:05.372Z,14.40
2018-09-22T20:21:34.805Z,14.30
2018-09-22T20:24:03.188Z,14.10
2018-09-22T20:29:10.803Z,14.00
2018-09-22T20:34:18.098Z,13.80
2018-09-22T20:36:46.567Z,13.80
2018-09-22T20:39:14.888Z,14.00
2018-09-22T20:41:43.231Z,13.90
2018-09-22T20:44:11.645Z,13.70
2018-09-22T20:46:40.232Z,13.60
2018-09-22T20:49:08.641Z,13.50
2018-09-22T20:51:37.269Z,13.50
2018-09-22T20:54:05.673Z,13.40
2018-09-22T20:56:33.951Z,13.40
2018-09-22T20:59:02.419Z,13.30
2018-09-22T21:01:30.669Z,13.20
2018-09-22T21:03:59.066Z,13.20
2018-09-22T21:06:27.341Z,13.20
2018-09-22T21:08:55.523Z,13.20
2018-09-22T21:11:23.840Z,13.20
2018-09-22T21:13:52.300Z,13.20
2018-09-22T21:16:20.585Z,13.20
2018-09-22T21:18:49.184Z,13.20
2018-09-22T21:21:17.557Z,13.20
2018-09-22T21:23:45.893Z,13.20
2018-09-22T21:26:14.353Z,13.10
2018-09-22T21:28:42.819Z,13.10
2018-09-22T21:31:11.040Z,13.10
2018-09-22T21:33:39.465Z,13.10
2018-09-22T21:36:07.791Z,13.00
2018-09-22T21:38:36.546Z,13.10
2018-09-22T21:41:05.121Z,13.10
2018-09-22T21:46:10.932Z,13.00
2018-09-22T21:48:39.304Z,13.00
2018-09-22T21:51:07.633Z,13.00
2018-09-22T21:53:36.148Z,12.90
2018-09-22T21:56:04.776Z,12.90
2018-09-22T21:58:32.954Z,12.90
2018-09-22T22:01:01.337Z,12.90
2018-09-22T22:03:29.586Z,12.90
2018-09-22T22:05:57.778Z,12.90
2018-09-22T22:08:26.729Z,12.90
2018-09-22T22:10:54.965Z,12.90
2018-09-22T22:13:23.224Z,12.90
2018-09-22T22:15:51.704Z,12.90
2018-09-22T22:18:19.891Z,12.90
2018-09-22T22:20:48.164Z,13.10
2018-09-22T22:23:16.536Z,13.10
2018-09-22T22:25:45.026Z,13.10
2018-09-22T22:28:13.271Z,13.00
2018-09-22T22:30:41.395Z,13.00
2018-09-22T22:33:09.565Z,13.00
2018-09-22T22:35:37.997Z,12.90
2018-09-22T22:38:07.525Z,12.90
2018-09-22T22:40:36.017Z,12.90
2018-09-22T22:43:04.382Z,12.90
2018-09-22T22:45:32.743Z,12.90
2018-09-22T22:48:01.589Z,12.80
2018-09-22T22:50:29.911Z,12.80
2018-09-22T22:52:58.597Z,13.00
2018-09-22T22:55:27.421Z,13.20
2018-09-22T22:57:55.861Z,13.20
2018-09-22T23:00:24.020Z,13.00
2018-09-22T23:02:52.193Z,12.90
2018-09-22T23:05:20.497Z,12.90
2018-09-22T23:07:48.678Z,12.90
2018-09-22T23:10:16.968Z,12.90
2018-09-22T23:12:45.249Z,12.90
2018-09-22T23:15:13.425Z,12.80
2018-09-22T23:17:41.691Z,12.80
2018-09-22T23:20:09.851Z,12.90
2018-09-22T23:22:37.979Z,13.00
2018-09-22T23:25:06.308Z,13.00
2018-09-22T23:27:34.582Z,13.00
2018-09-22T23:30:02.831Z,13.00
2018-09-22T23:32:30.979Z,12.90
2018-09-22T23:34:59.199Z,12.80
2018-09-22T23:37:27.369Z,12.60
2018-09-22T23:39:56.319Z,12.50
2018-09-22T23:42:24.485Z,12.50
2018-09-22T23:44:52.840Z,12.40
2018-09-22T23:47:20.968Z,12.40
2018-09-22T23:49:49.177Z,12.30
2018-09-22T23:52:17.483Z,12.30
2018-09-22T23:54:45.707Z,12.20
2018-09-22T23:57:13.824Z,12.10
2018-09-22T23:59:41.933Z,12.10
